Time;durP1;ratioP1;P1;durP2;ratioP2;P2;SDS_P1;SDS_P2;PMS_P1;PMS_P2;Temp;Humidity;BMP_temperature;BMP_pressure;BME280_temperature;BME280_humidity;BME280_pressure;Samples;Min_cycle;Max_cycle;Signal;HPM_P1;HPM_P2
2022/10/01 00:00:52;;;;;;;6.75;4.32;;;;;;;;;;5136000;27;20027;-71
2022/10/01 00:03:38;;;;;;;7.15;4.22;;;;;;;;;;5136704;27;20019;-70
2022/10/01 00:06:23;;;;;;;9.93;4.28;;;;;;;;;;5136789;27;20098;-70
2022/10/01 00:09:09;;;;;;;6.50;3.90;;;;;;;;;;5136580;27;20019;-71
2022/10/01 00:11:55;;;;;;;4.65;3.33;;;;;;;;;;5135590;27;20058;-70
2022/10/01 00:14:41;;;;;;;6.32;3.80;;;;;;;;;;5121568;27;20015;-71
2022/10/01 00:17:26;;;;;;;6.43;4.00;;;;;;;;;;5121472;27;20109;-71
2022/10/01 00:20:12;;;;;;;8.93;4.00;;;;;;;;;;5135934;27;20030;-71
2022/10/01 00:22:58;;;;;;;7.60;3.72;;;;;;;;;;5119654;27;20019;-71
2022/10/01 00:25:44;;;;;;;6.07;4.10;;;;;;;;;;5123317;27;20345;-71
2022/10/01 00:28:29;;;;;;;9.77;4.00;;;;;;;;;;5135253;27;20007;-70
2022/10/01 00:31:15;;;;;;;5.43;3.90;;;;;;;;;;5134684;27;20038;-70
2022/10/01 00:34:04;;;;;;;6.43;3.60;;;;;;;;;;5136145;27;20012;-70
2022/10/01 00:36:49;;;;;;;5.97;3.63;;;;;;;;;;5121189;27;20110;-70
2022/10/01 00:39:35;;;;;;;6.35;3.72;;;;;;;;;;5135111;27;20023;-71
2022/10/01 00:42:23;;;;;;;9.90;4.07;;;;;;;;;;5136503;27;20096;-70
2022/10/01 00:45:14;;;;;;;6.85;4.57;;;;;;;;;;5135081;27;20042;-70
2022/10/01 00:47:59;;;;;;;8.30;3.63;;;;;;;;;;5120699;27;20350;-70
2022/10/01 00:50:47;;;;;;;8.45;4.32;;;;;;;;;;5134588;27;20033;-70
2022/10/01 00:53:33;;;;;;;7.07;4.68;;;;;;;;;;5135093;27;20039;-70
2022/10/01 00:56:19;;;;;;;6.78;4.10;;;;;;;;;;5134800;27;20038;-71
2022/10/01 00:59:05;;;;;;;9.40;4.43;;;;;;;;;;5135506;27;20019;-71
2022/10/01 01:01:51;;;;;;;12.30;4.28;;;;;;;;;;5120620;27;20376;-71
2022/10/01 01:04:38;;;;;;;6.90;4.43;;;;;;;;;;5135827;28;20019;-70
2022/10/01 01:07:25;;;;;;;9.77;4.75;;;;;;;;;;5136006;28;20459;-71
2022/10/01 01:10:16;;;;;;;7.55;4.10;;;;;;;;;;5135326;28;20091;-70
2022/10/01 01:13:16;;;;;;;6.18;4.38;;;;;;;;;;5120162;28;20445;-71
2022/10/01 01:16:08;;;;;;;10.88;4.50;;;;;;;;;;5135457;28;20139;-70
2022/10/01 01:18:53;;;;;;;7.47;4.38;;;;;;;;;;5133621;28;20133;-70
2022/10/01 01:21:41;;;;;;;7.93;4.38;;;;;;;;;;5134703;28;20410;-70
2022/10/01 01:24:29;;;;;;;6.63;4.20;;;;;;;;;;5135203;28;20023;-70
2022/10/01 01:27:18;;;;;;;10.15;4.60;;;;;;;;;;5120235;28;20023;-70
2022/10/01 01:30:11;;;;;;;8.60;4.20;;;;;;;;;;5134254;28;20356;-71
2022/10/01 01:33:03;;;;;;;5.57;3.95;;;;;;;;;;5135291;28;20383;-70
2022/10/01 01:35:52;;;;;;;7.15;4.20;;;;;;;;;;5124381;27;20035;-71
2022/10/01 01:38:48;;;;;;;8.40;4.38;;;;;;;;;;5139386;27;20458;-70
2022/10/01 01:41:36;;;;;;;7.22;3.90;;;;;;;;;;5139205;27;20019;-70
2022/10/01 01:44:26;;;;;;;7.85;3.92;;;;;;;;;;5139229;27;20046;-71
2022/10/01 01:47:13;;;;;;;6.30;4.05;;;;;;;;;;5139097;27;20020;-69
2022/10/01 01:50:01;;;;;;;6.55;4.22;;;;;;;;;;5139068;27;20015;-70
2022/10/01 01:52:47;;;;;;;11.27;4.88;;;;;;;;;;5138863;27;20353;-71
2022/10/01 01:55:34;;;;;;;10.05;4.85;;;;;;;;;;5138095;27;20043;-71
2022/10/01 01:58:20;;;;;;;9.02;4.80;;;;;;;;;;5138573;27;20019;-70
2022/10/01 02:01:05;;;;;;;16.27;5.05;;;;;;;;;;5138215;27;20035;-71
2022/10/01 02:03:51;;;;;;;6.13;4.70;;;;;;;;;;5137214;27;20052;-71
2022/10/01 02:06:55;;;;;;;10.50;4.78;;;;;;;;;;5138244;27;20076;-71
2022/10/01 02:09:45;;;;;;;9.45;5.00;;;;;;;;;;5123332;27;20432;-70
2022/10/01 02:12:43;;;;;;;10.20;5.50;;;;;;;;;;5138229;27;20437;-71
2022/10/01 02:15:52;;;;;;;11.02;4.93;;;;;;;;;;5124205;27;20463;-71
2022/10/01 02:18:45;;;;;;;9.00;5.32;;;;;;;;;;5137697;27;20027;-70
2022/10/01 02:21:30;;;;;;;13.63;5.50;;;;;;;;;;5137737;27;20126;-71
2022/10/01 02:24:26;;;;;;;9.77;5.50;;;;;;;;;;5137041;27;20027;-71
2022/10/01 02:27:20;;;;;;;11.63;5.00;;;;;;;;;;5138390;27;20018;-71
2022/10/01 02:30:07;;;;;;;8.07;5.22;;;;;;;;;;5137467;27;20012;-72
2022/10/01 02:32:55;;;;;;;7.10;4.90;;;;;;;;;;5137412;27;20067;-72
2022/10/01 02:35:43;;;;;;;13.98;5.38;;;;;;;;;;5137893;27;20031;-71
2022/10/01 02:38:30;;;;;;;10.48;5.50;;;;;;;;;;5123117;27;20349;-70
2022/10/01 02:41:18;;;;;;;14.52;6.07;;;;;;;;;;5137259;27;20352;-70
2022/10/01 02:44:12;;;;;;;7.78;5.18;;;;;;;;;;5139520;27;20015;-70
2022/10/01 02:47:06;;;;;;;9.07;4.72;;;;;;;;;;5136900;27;20019;-72
2022/10/01 02:49:52;;;;;;;10.52;5.22;;;;;;;;;;5137364;27;20012;-71
2022/10/01 02:52:41;;;;;;;7.22;4.65;;;;;;;;;;5136923;27;20087;-71
2022/10/01 02:55:29;;;;;;;8.60;4.70;;;;;;;;;;5136869;27;20058;-70
2022/10/01 02:58:16;;;;;;;5.75;4.30;;;;;;;;;;5137472;27;20022;-70
2022/10/01 03:01:01;;;;;;;9.63;4.75;;;;;;;;;;5137783;27;20023;-71
2022/10/01 03:03:47;;;;;;;6.35;4.70;;;;;;;;;;5137669;27;20014;-71
2022/10/01 03:06:34;;;;;;;5.82;4.50;;;;;;;;;;5136774;27;20091;-71
2022/10/01 03:09:20;;;;;;;13.45;5.57;;;;;;;;;;5136497;27;20046;-71
2022/10/01 03:12:05;;;;;;;14.35;5.70;;;;;;;;;;5136049;27;20474;-71
2022/10/01 03:14:52;;;;;;;9.85;5.57;;;;;;;;;;5136552;27;20033;-71
2022/10/01 03:17:38;;;;;;;13.18;5.60;;;;;;;;;;5136937;27;20027;-71
2022/10/01 03:20:23;;;;;;;9.77;6.57;;;;;;;;;;5136062;27;20023;-71
2022/10/01 03:23:09;;;;;;;11.07;5.65;;;;;;;;;;5137551;27;20106;-70
2022/10/01 03:25:55;;;;;;;9.77;5.97;;;;;;;;;;5122261;27;20394;-72
2022/10/01 03:28:40;;;;;;;8.27;5.50;;;;;;;;;;5137191;27;20094;-71
2022/10/01 03:31:26;;;;;;;9.52;5.35;;;;;;;;;;5136901;27;20015;-71
2022/10/01 03:34:12;;;;;;;10.48;6.13;;;;;;;;;;5136698;27;20099;-70
2022/10/01 03:36:58;;;;;;;9.32;4.60;;;;;;;;;;5121722;27;20110;-70
2022/10/01 03:39:43;;;;;;;5.82;4.72;;;;;;;;;;5136645;27;20027;-71
2022/10/01 03:42:29;;;;;;;6.55;4.53;;;;;;;;;;5136902;27;20038;-70
2022/10/01 03:45:14;;;;;;;7.18;4.65;;;;;;;;;;5135590;27;20076;-70
2022/10/01 03:48:00;;;;;;;8.65;4.68;;;;;;;;;;5137094;27;20334;-70
2022/10/01 03:50:56;;;;;;;8.82;4.18;;;;;;;;;;5136116;27;20111;-70
2022/10/01 03:53:41;;;;;;;6.22;4.00;;;;;;;;;;5136102;27;20085;-70
2022/10/01 03:56:27;;;;;;;6.43;4.30;;;;;;;;;;5136497;27;20023;-70
2022/10/01 03:59:13;;;;;;;5.53;4.38;;;;;;;;;;5135950;27;20110;-71
2022/10/01 04:01:59;;;;;;;6.78;4.05;;;;;;;;;;5136359;27;20091;-72
2022/10/01 04:04:44;;;;;;;7.88;4.70;;;;;;;;;;5135943;27;20027;-71
2022/10/01 04:07:30;;;;;;;9.23;4.97;;;;;;;;;;5135937;27;20030;-72
2022/10/01 04:10:15;;;;;;;6.25;4.38;;;;;;;;;;5136077;27;20015;-71
2022/10/01 04:13:01;;;;;;;5.43;4.28;;;;;;;;;;5121526;27;20023;-71
2022/10/01 04:15:47;;;;;;;10.05;4.50;;;;;;;;;;5135942;27;20033;-71
2022/10/01 04:18:33;;;;;;;7.18;4.82;;;;;;;;;;5135586;27;20020;-72
2022/10/01 04:21:18;;;;;;;8.77;4.60;;;;;;;;;;5135258;27;20035;-72
2022/10/01 04:24:04;;;;;;;12.07;5.28;;;;;;;;;;5134895;27;20023;-71
2022/10/01 04:26:50;;;;;;;6.63;4.78;;;;;;;;;;5135041;27;20364;-71
2022/10/01 04:29:35;;;;;;;6.35;5.13;;;;;;;;;;5121049;27;20016;-71
2022/10/01 04:32:21;;;;;;;7.32;4.60;;;;;;;;;;5120866;27;20019;-72
2022/10/01 04:35:07;;;;;;;8.23;5.03;;;;;;;;;;5134877;27;20410;-72
2022/10/01 04:37:58;;;;;;;7.35;5.10;;;;;;;;;;5120669;27;20019;-71
2022/10/01 04:40:43;;;;;;;7.53;5.18;;;;;;;;;;5135400;27;20098;-70
2022/10/01 04:43:29;;;;;;;12.43;5.50;;;;;;;;;;5135803;27;20084;-71
2022/10/01 04:46:15;;;;;;;8.30;5.60;;;;;;;;;;5136208;27;20385;-72
2022/10/01 04:49:00;;;;;;;12.68;5.93;;;;;;;;;;5134394;27;20034;-72
2022/10/01 04:51:46;;;;;;;14.85;6.20;;;;;;;;;;5134297;27;20015;-72
2022/10/01 04:54:31;;;;;;;21.23;6.85;;;;;;;;;;5134780;27;20370;-71
2022/10/01 04:57:20;;;;;;;11.18;5.70;;;;;;;;;;5135762;27;20015;-71
2022/10/01 05:00:08;;;;;;;11.73;6.78;;;;;;;;;;5134743;27;20548;-71
2022/10/01 05:02:53;;;;;;;7.97;5.50;;;;;;;;;;5135379;27;20031;-70
2022/10/01 05:05:39;;;;;;;7.22;5.50;;;;;;;;;;5134939;27;20483;-71
2022/10/01 05:08:25;;;;;;;9.23;5.15;;;;;;;;;;5134109;27;20019;-71
2022/10/01 05:11:11;;;;;;;9.80;4.75;;;;;;;;;;5134975;28;20047;-70
2022/10/01 05:13:56;;;;;;;11.07;5.25;;;;;;;;;;5134766;28;20015;-70
2022/10/01 05:16:42;;;;;;;10.27;5.75;;;;;;;;;;5120623;28;20049;-72
2022/10/01 05:19:28;;;;;;;9.18;4.85;;;;;;;;;;5134483;28;20019;-72
2022/10/01 05:22:14;;;;;;;8.02;4.72;;;;;;;;;;5119965;28;20023;-71
2022/10/01 05:24:59;;;;;;;8.30;4.88;;;;;;;;;;5134893;28;20015;-71
2022/10/01 05:27:45;;;;;;;7.68;4.85;;;;;;;;;;5135771;28;20062;-70
2022/10/01 05:30:31;;;;;;;9.38;5.50;;;;;;;;;;5134497;28;20045;-72
2022/10/01 05:33:17;;;;;;;15.40;5.70;;;;;;;;;;5135512;28;20360;-71
2022/10/01 05:36:05;;;;;;;8.13;6.00;;;;;;;;;;5135740;28;20023;-72
2022/10/01 05:38:51;;;;;;;10.70;6.35;;;;;;;;;;5135150;28;20031;-71
2022/10/01 05:41:39;;;;;;;8.10;5.43;;;;;;;;;;5134637;28;20027;-71
2022/10/01 05:44:25;;;;;;;10.80;6.03;;;;;;;;;;5134413;28;20027;-71
2022/10/01 05:47:14;;;;;;;14.05;6.82;;;;;;;;;;5135545;28;20353;-72
2022/10/01 05:50:00;;;;;;;13.00;7.63;;;;;;;;;;5134386;28;20015;-72
2022/10/01 05:52:52;;;;;;;16.48;8.80;;;;;;;;;;5134031;28;20434;-71
2022/10/01 05:55:38;;;;;;;14.30;9.43;;;;;;;;;;5135130;28;20050;-72
2022/10/01 05:58:23;;;;;;;14.45;10.35;;;;;;;;;;5134751;28;20061;-71
2022/10/01 06:01:09;;;;;;;18.88;10.57;;;;;;;;;;5135695;28;20027;-71
2022/10/01 06:03:54;;;;;;;14.93;10.50;;;;;;;;;;5133352;28;20027;-71
2022/10/01 06:06:40;;;;;;;17.17;9.77;;;;;;;;;;5135104;28;20015;-71
2022/10/01 06:09:26;;;;;;;15.95;10.00;;;;;;;;;;5135045;28;20075;-71
2022/10/01 06:12:11;;;;;;;18.25;9.93;;;;;;;;;;5119596;28;20489;-72
2022/10/01 06:14:57;;;;;;;17.23;10.27;;;;;;;;;;5119976;28;20055;-72
2022/10/01 06:17:44;;;;;;;18.73;9.82;;;;;;;;;;5121298;28;20023;-72
2022/10/01 06:20:29;;;;;;;13.80;9.15;;;;;;;;;;5135179;27;20038;-71
2022/10/01 06:23:15;;;;;;;19.38;9.40;;;;;;;;;;5123507;27;20104;-72
2022/10/01 06:26:01;;;;;;;12.07;8.63;;;;;;;;;;5138488;27;20015;-72
2022/10/01 06:28:50;;;;;;;15.15;8.40;;;;;;;;;;5137990;27;20026;-72
2022/10/01 06:31:36;;;;;;;17.30;9.57;;;;;;;;;;5122437;27;20022;-73
2022/10/01 06:34:22;;;;;;;17.38;10.60;;;;;;;;;;5138948;27;20011;-71
2022/10/01 06:37:07;;;;;;;15.23;10.80;;;;;;;;;;5133146;27;20023;-72
2022/10/01 06:39:53;;;;;;;17.63;10.93;;;;;;;;;;5123451;27;20023;-71
2022/10/01 06:42:39;;;;;;;18.90;11.73;;;;;;;;;;5137793;27;20440;-73
2022/10/01 06:45:25;;;;;;;23.98;15.30;;;;;;;;;;5137566;27;20034;-72
2022/10/01 06:48:13;;;;;;;16.60;10.90;;;;;;;;;;5139840;27;20026;-72
2022/10/01 06:50:58;;;;;;;22.02;13.10;;;;;;;;;;5138682;27;20080;-72
2022/10/01 06:53:44;;;;;;;22.95;11.75;;;;;;;;;;5136463;27;20047;-72
2022/10/01 06:56:30;;;;;;;17.23;11.10;;;;;;;;;;5137218;27;20050;-72
2022/10/01 06:59:15;;;;;;;20.45;12.52;;;;;;;;;;5138395;27;20019;-72
2022/10/01 07:02:01;;;;;;;24.25;12.48;;;;;;;;;;5138776;27;20506;-71
2022/10/01 07:04:47;;;;;;;21.98;13.15;;;;;;;;;;5122805;27;20429;-72
2022/10/01 07:07:34;;;;;;;23.67;12.82;;;;;;;;;;5122392;27;20015;-72
2022/10/01 07:10:20;;;;;;;22.88;12.50;;;;;;;;;;5137097;27;20034;-72
2022/10/01 07:13:13;;;;;;;22.65;12.65;;;;;;;;;;5135605;27;20026;-72
2022/10/01 07:16:01;;;;;;;21.25;12.05;;;;;;;;;;5122094;27;20019;-71
2022/10/01 07:18:46;;;;;;;18.38;10.30;;;;;;;;;;5121891;27;20061;-72
2022/10/01 07:21:32;;;;;;;24.55;11.43;;;;;;;;;;5136451;27;20390;-72
2022/10/01 07:24:17;;;;;;;19.45;12.00;;;;;;;;;;5137380;27;20125;-72
2022/10/01 07:27:03;;;;;;;20.00;12.32;;;;;;;;;;5135925;27;20098;-71
2022/10/01 07:29:49;;;;;;;28.33;12.70;;;;;;;;;;5120890;27;20102;-71
2022/10/01 07:32:34;;;;;;;18.38;11.35;;;;;;;;;;5135532;27;20015;-71
2022/10/01 07:35:20;;;;;;;21.30;11.35;;;;;;;;;;5121601;27;20015;-72
2022/10/01 07:38:06;;;;;;;20.02;9.15;;;;;;;;;;5137250;27;20090;-71
2022/10/01 07:40:53;;;;;;;18.35;8.98;;;;;;;;;;5121828;27;20456;-71
2022/10/01 07:43:41;;;;;;;17.17;7.72;;;;;;;;;;5136186;27;20454;-72
2022/10/01 07:46:26;;;;;;;18.02;8.63;;;;;;;;;;5136341;27;20019;-72
2022/10/01 07:49:12;;;;;;;14.32;7.43;;;;;;;;;;5136554;27;20049;-71
2022/10/01 07:51:57;;;;;;;13.55;8.32;;;;;;;;;;5135704;27;20015;-72
2022/10/01 07:54:43;;;;;;;14.13;8.40;;;;;;;;;;5135415;27;20057;-72
2022/10/01 07:57:29;;;;;;;13.18;8.18;;;;;;;;;;5136175;27;20034;-72
2022/10/01 08:00:14;;;;;;;15.70;9.45;;;;;;;;;;5136217;27;20019;-71
2022/10/01 08:03:00;;;;;;;15.50;9.15;;;;;;;;;;5134987;27;20463;-72
2022/10/01 08:05:46;;;;;;;12.93;8.30;;;;;;;;;;5120348;27;20034;-72
2022/10/01 08:08:32;;;;;;;16.17;8.88;;;;;;;;;;5135744;27;20015;-70
2022/10/01 08:11:17;;;;;;;16.92;8.60;;;;;;;;;;5136702;27;20019;-72
2022/10/01 08:14:03;;;;;;;17.05;9.00;;;;;;;;;;5120689;27;20034;-71
2022/10/01 08:16:49;;;;;;;15.77;8.15;;;;;;;;;;5136334;27;20087;-71
2022/10/01 08:19:35;;;;;;;16.48;8.02;;;;;;;;;;5135797;27;20058;-71
2022/10/01 08:22:20;;;;;;;17.52;8.23;;;;;;;;;;5134651;27;20409;-71
2022/10/01 08:25:06;;;;;;;14.57;7.90;;;;;;;;;;5114601;27;20023;-72
2022/10/01 08:27:52;;;;;;;16.88;8.02;;;;;;;;;;5135162;27;20459;-70
2022/10/01 08:30:39;;;;;;;13.32;7.30;;;;;;;;;;5135223;27;20023;-72
2022/10/01 08:33:24;;;;;;;15.10;6.93;;;;;;;;;;5134969;27;20015;-71
2022/10/01 08:36:10;;;;;;;13.90;7.07;;;;;;;;;;5135436;27;20026;-72
2022/10/01 08:38:56;;;;;;;15.38;7.40;;;;;;;;;;5134663;27;20019;-72
2022/10/01 08:41:53;;;;;;;14.77;7.07;;;;;;;;;;5134973;27;20023;-71
2022/10/01 08:44:41;;;;;;;10.57;6.72;;;;;;;;;;5134552;27;20357;-71
2022/10/01 08:47:29;;;;;;;10.00;6.05;;;;;;;;;;5135316;27;20083;-73
2022/10/01 08:50:27;;;;;;;12.68;6.25;;;;;;;;;;5134993;27;20016;-72
2022/10/01 08:53:21;;;;;;;12.18;6.20;;;;;;;;;;5134437;27;20449;-73
2022/10/01 08:56:19;;;;;;;11.52;6.28;;;;;;;;;;5135969;27;20050;-72
2022/10/01 08:59:25;;;;;;;18.75;5.75;;;;;;;;;;5135634;27;20034;-72
2022/10/01 09:02:21;;;;;;;13.35;5.22;;;;;;;;;;5098125;27;20346;-73
2022/10/01 09:05:16;;;;;;;13.38;5.22;;;;;;;;;;5134947;27;20107;-72
2022/10/01 09:08:11;;;;;;;10.30;5.70;;;;;;;;;;5120145;28;20103;-73
2022/10/01 09:11:03;;;;;;;12.32;6.05;;;;;;;;;;5135011;28;20418;-72
2022/10/01 09:13:50;;;;;;;11.05;5.50;;;;;;;;;;5135071;28;20030;-72
2022/10/01 09:16:35;;;;;;;8.77;5.97;;;;;;;;;;5133874;28;20019;-73
2022/10/01 09:19:40;;;;;;;14.88;5.88;;;;;;;;;;5120222;28;20150;-72
2022/10/01 09:22:59;;;;;;;13.75;5.78;;;;;;;;;;5134544;28;20360;-73
2022/10/01 09:25:49;;;;;;;9.15;5.43;;;;;;;;;;5092971;28;20027;-73
2022/10/01 09:28:38;;;;;;;18.65;6.50;;;;;;;;;;5134549;28;20026;-73
2022/10/01 09:31:25;;;;;;;15.13;6.40;;;;;;;;;;5134525;28;20015;-73
2022/10/01 09:34:13;;;;;;;17.83;6.63;;;;;;;;;;5133954;28;20015;-72
2022/10/01 09:37:05;;;;;;;15.35;7.43;;;;;;;;;;5120136;28;20102;-73
2022/10/01 09:39:51;;;;;;;12.55;7.38;;;;;;;;;;5134173;28;20104;-71
2022/10/01 09:42:37;;;;;;;6.90;5.38;;;;;;;;;;5133434;28;20023;-72
2022/10/01 09:45:23;;;;;;;12.02;5.07;;;;;;;;;;5134185;28;20034;-71
2022/10/01 09:48:14;;;;;;;11.63;5.43;;;;;;;;;;5134746;28;20023;-73
2022/10/01 09:51:15;;;;;;;10.73;6.07;;;;;;;;;;5133756;28;20019;-72
2022/10/01 09:54:11;;;;;;;11.80;5.70;;;;;;;;;;5134554;27;20058;-72
2022/10/01 09:57:00;;;;;;;7.78;4.93;;;;;;;;;;5138904;27;20360;-72
2022/10/01 09:59:54;;;;;;;10.60;7.40;;;;;;;;;;5138511;27;20015;-73
2022/10/01 10:02:40;;;;;;;9.25;4.95;;;;;;;;;;5138831;27;20034;-72
2022/10/01 10:05:27;;;;;;;6.72;4.50;;;;;;;;;;5138164;27;20326;-72
2022/10/01 10:08:25;;;;;;;9.52;4.70;;;;;;;;;;5138660;27;20023;-72
2022/10/01 10:11:19;;;;;;;18.33;12.95;;;;;;;;;;5139081;27;20355;-71
2022/10/01 10:14:04;;;;;;;10.25;6.80;;;;;;;;;;5138656;27;20019;-72
2022/10/01 10:16:50;;;;;;;8.43;5.75;;;;;;;;;;5139350;27;20226;-72
2022/10/01 10:19:36;;;;;;;8.38;5.50;;;;;;;;;;5124020;27;20019;-73
2022/10/01 10:22:25;;;;;;;8.15;5.10;;;;;;;;;;5137848;27;20019;-72
2022/10/01 10:25:17;;;;;;;7.32;4.18;;;;;;;;;;5137583;27;20042;-72
2022/10/01 10:28:03;;;;;;;9.02;4.40;;;;;;;;;;5139001;27;20445;-73
2022/10/01 10:30:51;;;;;;;12.70;4.40;;;;;;;;;;5123424;27;20011;-74
2022/10/01 10:33:37;;;;;;;9.60;5.00;;;;;;;;;;5138245;27;20459;-71
2022/10/01 10:36:28;;;;;;;10.20;4.80;;;;;;;;;;5137219;27;20026;-72
2022/10/01 10:39:20;;;;;;;11.40;5.07;;;;;;;;;;5138191;27;20524;-72
2022/10/01 10:42:06;;;;;;;8.68;5.20;;;;;;;;;;5136574;27;20424;-72
2022/10/01 10:44:53;;;;;;;11.07;7.30;;;;;;;;;;5122803;27;20023;-73
2022/10/01 10:47:47;;;;;;;10.77;5.65;;;;;;;;;;5138302;27;20023;-73
2022/10/01 10:50:35;;;;;;;13.10;5.72;;;;;;;;;;5137232;27;20027;-73
2022/10/01 10:53:23;;;;;;;8.13;5.53;;;;;;;;;;5120927;27;20035;-73
2022/10/01 10:56:22;;;;;;;6.70;5.32;;;;;;;;;;5122530;27;20117;-72
2022/10/01 10:59:08;;;;;;;9.13;5.38;;;;;;;;;;5121819;27;20463;-73
2022/10/01 11:01:54;;;;;;;10.05;5.35;;;;;;;;;;5137428;27;20107;-73
2022/10/01 11:04:44;;;;;;;15.00;6.72;;;;;;;;;;5137108;27;20023;-73
2022/10/01 11:07:29;;;;;;;7.60;4.75;;;;;;;;;;5136655;27;20035;-73
2022/10/01 11:10:27;;;;;;;7.40;5.47;;;;;;;;;;5137141;27;20047;-74
2022/10/01 11:13:25;;;;;;;9.45;4.95;;;;;;;;;;5136588;27;20426;-73
2022/10/01 11:16:29;;;;;;;8.02;4.55;;;;;;;;;;5122401;27;20023;-73
2022/10/01 11:19:34;;;;;;;7.68;4.07;;;;;;;;;;5121890;27;20023;-73
2022/10/01 11:22:26;;;;;;;10.98;4.72;;;;;;;;;;5121210;27;20016;-73
2022/10/01 11:25:20;;;;;;;10.73;4.88;;;;;;;;;;5135465;27;20019;-71
2022/10/01 11:28:09;;;;;;;11.90;8.02;;;;;;;;;;5135819;27;20053;-72
2022/10/01 11:30:54;;;;;;;12.77;5.00;;;;;;;;;;5135705;27;20440;-72
2022/10/01 11:33:46;;;;;;;11.65;4.32;;;;;;;;;;5121652;27;20023;-72
2022/10/01 11:36:51;;;;;;;7.75;4.50;;;;;;;;;;5135681;27;20397;-72
2022/10/01 11:39:38;;;;;;;10.00;4.80;;;;;;;;;;5136518;27;20057;-73
2022/10/01 11:42:33;;;;;;;8.00;4.32;;;;;;;;;;5136433;27;20497;-73
2022/10/01 11:45:24;;;;;;;8.38;4.35;;;;;;;;;;5120027;27;20019;-69
2022/10/01 11:48:12;;;;;;;6.70;4.07;;;;;;;;;;5136645;27;20041;-72
2022/10/01 11:51:02;;;;;;;9.77;4.03;;;;;;;;;;5135754;27;20022;-72
2022/10/01 11:53:50;;;;;;;8.45;4.50;;;;;;;;;;5135560;27;20050;-72
2022/10/01 11:59:48;;;;;;;13.90;4.80;;;;;;;;;;5098882;27;20062;-71
2022/10/01 12:02:37;;;;;;;9.02;4.50;;;;;;;;;;5135672;27;20467;-72
2022/10/01 12:05:30;;;;;;;7.20;4.25;;;;;;;;;;5135240;27;20038;-72
2022/10/01 12:08:28;;;;;;;7.53;4.20;;;;;;;;;;5135986;27;20023;-72
2022/10/01 12:11:23;;;;;;;12.10;4.78;;;;;;;;;;5135686;27;20022;-71
2022/10/01 12:14:11;;;;;;;8.32;4.97;;;;;;;;;;5135728;27;20435;-71
2022/10/01 12:16:56;;;;;;;12.98;5.82;;;;;;;;;;5121339;27;20023;-72
2022/10/01 12:19:45;;;;;;;15.35;6.75;;;;;;;;;;5136187;27;20024;-73
2022/10/01 12:22:36;;;;;;;14.95;7.45;;;;;;;;;;5136656;27;20023;-73
2022/10/01 12:25:25;;;;;;;14.27;7.90;;;;;;;;;;5136257;27;20456;-73
2022/10/01 12:28:33;;;;;;;11.45;8.32;;;;;;;;;;5119683;27;20400;-73
2022/10/01 12:31:23;;;;;;;16.77;8.75;;;;;;;;;;5120519;27;20038;-72
2022/10/01 12:34:27;;;;;;;11.18;8.23;;;;;;;;;;5135484;27;20072;-71
2022/10/01 12:37:14;;;;;;;16.38;8.70;;;;;;;;;;5120422;27;20068;-72
2022/10/01 12:40:19;;;;;;;12.05;8.10;;;;;;;;;;5135119;27;20068;-72
2022/10/01 12:43:14;;;;;;;10.48;8.50;;;;;;;;;;5097561;27;20099;-72
2022/10/01 12:46:11;;;;;;;11.43;8.57;;;;;;;;;;5134652;27;20075;-74
2022/10/01 12:49:21;;;;;;;18.15;8.98;;;;;;;;;;5134337;27;20410;-74
2022/10/01 12:52:09;;;;;;;18.35;9.00;;;;;;;;;;5120224;27;20019;-71
2022/10/01 12:55:12;;;;;;;10.98;8.88;;;;;;;;;;5133895;27;20430;-72
2022/10/01 12:58:21;;;;;;;11.68;8.98;;;;;;;;;;5135622;27;20027;-72
2022/10/01 13:01:24;;;;;;;11.25;8.10;;;;;;;;;;5135061;27;20051;-71
2022/10/01 13:04:30;;;;;;;12.48;8.77;;;;;;;;;;5135011;27;20030;-71
2022/10/01 13:07:21;;;;;;;14.40;7.50;;;;;;;;;;5134764;27;20051;-71
2022/10/01 13:10:25;;;;;;;12.57;7.55;;;;;;;;;;5134309;28;20012;-71
2022/10/01 13:13:16;;;;;;;14.13;7.10;;;;;;;;;;5134462;28;20029;-71
2022/10/01 13:16:08;;;;;;;15.20;6.80;;;;;;;;;;5120121;28;20051;-70
2022/10/01 13:18:54;;;;;;;8.73;5.93;;;;;;;;;;5134356;28;20084;-71
2022/10/01 13:21:56;;;;;;;9.80;5.70;;;;;;;;;;5134343;28;20030;-71
2022/10/01 13:24:59;;;;;;;11.68;5.82;;;;;;;;;;5135091;28;20346;-71
2022/10/01 13:27:48;;;;;;;8.27;5.30;;;;;;;;;;5134851;28;20019;-71
2022/10/01 13:30:43;;;;;;;10.77;6.13;;;;;;;;;;5136477;27;20019;-71
2022/10/01 13:33:36;;;;;;;12.65;6.35;;;;;;;;;;5139141;27;20031;-72
2022/10/01 13:36:32;;;;;;;14.75;6.15;;;;;;;;;;5138891;27;20019;-71
2022/10/01 13:39:19;;;;;;;10.82;5.90;;;;;;;;;;5138285;27;20051;-71
2022/10/01 13:42:04;;;;;;;10.63;6.05;;;;;;;;;;5124025;27;20064;-72
2022/10/01 13:44:51;;;;;;;11.02;6.70;;;;;;;;;;5124330;27;20030;-71
2022/10/01 13:47:39;;;;;;;12.93;6.10;;;;;;;;;;5139270;27;20413;-72
2022/10/01 13:50:26;;;;;;;14.40;6.95;;;;;;;;;;5138837;27;20106;-71
2022/10/01 13:53:19;;;;;;;12.25;7.00;;;;;;;;;;5139350;27;20019;-70
2022/10/01 13:56:05;;;;;;;12.57;7.18;;;;;;;;;;5139547;27;20046;-71
2022/10/01 13:58:51;;;;;;;11.65;7.55;;;;;;;;;;5139544;27;20428;-71
2022/10/01 14:01:40;;;;;;;13.13;8.40;;;;;;;;;;5138648;27;20356;-71
2022/10/01 14:04:32;;;;;;;12.32;8.15;;;;;;;;;;5138988;27;20500;-71
2022/10/01 14:07:23;;;;;;;13.35;7.78;;;;;;;;;;5138350;27;20051;-72
2022/10/01 14:10:11;;;;;;;11.50;7.88;;;;;;;;;;5138439;27;20023;-71
2022/10/01 14:16:02;;;;;;;12.18;7.72;;;;;;;;;;5138941;27;20026;-73
2022/10/01 14:18:48;;;;;;;10.65;7.35;;;;;;;;;;5138592;27;20106;-74
2022/10/01 14:21:40;;;;;;;13.07;7.20;;;;;;;;;;5139692;27;20035;-70
2022/10/01 14:24:43;;;;;;;10.77;8.25;;;;;;;;;;5139758;27;20412;-72
2022/10/01 14:27:41;;;;;;;11.82;7.72;;;;;;;;;;5139570;27;20406;-72
2022/10/01 14:30:32;;;;;;;13.38;7.95;;;;;;;;;;5139989;27;20038;-72
2022/10/01 14:33:36;;;;;;;14.20;9.25;;;;;;;;;;5138967;27;20023;-71
2022/10/01 14:36:41;;;;;;;12.88;7.78;;;;;;;;;;5124973;27;20340;-72
2022/10/01 14:39:28;;;;;;;9.38;6.97;;;;;;;;;;5139338;27;20050;-70
2022/10/01 14:42:17;;;;;;;11.57;7.55;;;;;;;;;;5136775;27;20390;-72
2022/10/01 14:45:13;;;;;;;13.95;6.70;;;;;;;;;;5137215;27;20034;-72
2022/10/01 14:48:00;;;;;;;18.17;7.80;;;;;;;;;;5138031;27;20026;-71
2022/10/01 14:50:46;;;;;;;21.38;9.40;;;;;;;;;;5123240;27;20026;-71
2022/10/01 14:53:33;;;;;;;14.90;8.88;;;;;;;;;;5142647;27;20063;-71
2022/10/01 14:56:19;;;;;;;16.45;8.02;;;;;;;;;;5140788;27;20026;-72
2022/10/01 14:59:17;;;;;;;11.75;7.93;;;;;;;;;;5138954;27;20106;-72
2022/10/01 15:02:14;;;;;;;12.77;8.38;;;;;;;;;;5122574;27;20082;-72
2022/10/01 15:05:00;;;;;;;12.88;8.95;;;;;;;;;;5137914;27;20034;-75
2022/10/01 15:07:46;;;;;;;16.70;9.27;;;;;;;;;;5137611;27;20133;-73
2022/10/01 15:10:31;;;;;;;16.00;9.23;;;;;;;;;;5137019;27;20019;-72
2022/10/01 15:13:26;;;;;;;15.73;9.40;;;;;;;;;;5135756;27;20356;-72
2022/10/01 15:16:16;;;;;;;11.85;9.00;;;;;;;;;;5136726;27;20102;-73
2022/10/01 15:19:04;;;;;;;13.82;8.00;;;;;;;;;;5135971;27;20056;-71
2022/10/01 15:21:50;;;;;;;15.90;7.90;;;;;;;;;;5136926;27;20015;-72
2022/10/01 15:24:40;;;;;;;15.35;7.53;;;;;;;;;;5136001;27;20038;-73
2022/10/01 15:27:25;;;;;;;13.02;7.70;;;;;;;;;;5135174;27;20110;-72
2022/10/01 15:30:17;;;;;;;11.50;7.63;;;;;;;;;;5136497;27;20015;-72
2022/10/01 15:33:02;;;;;;;14.70;7.60;;;;;;;;;;5136152;27;20341;-72
2022/10/01 15:35:48;;;;;;;14.15;7.53;;;;;;;;;;5136825;27;20023;-72
2022/10/01 15:38:35;;;;;;;14.80;6.68;;;;;;;;;;5136239;27;20044;-71
2022/10/01 15:41:30;;;;;;;13.30;5.70;;;;;;;;;;5137074;27;20023;-73
2022/10/01 15:44:34;;;;;;;13.20;5.57;;;;;;;;;;5136523;27;20433;-73
2022/10/01 15:47:20;;;;;;;14.30;5.35;;;;;;;;;;5135857;27;20027;-73
2022/10/01 15:50:08;;;;;;;9.30;4.68;;;;;;;;;;5135793;27;20019;-72
2022/10/01 15:52:56;;;;;;;10.55;4.40;;;;;;;;;;5135511;27;20035;-74
2022/10/01 15:55:44;;;;;;;13.00;4.20;;;;;;;;;;5135426;27;20071;-73
2022/10/01 15:58:33;;;;;;;8.30;4.15;;;;;;;;;;5136676;27;20018;-72
2022/10/01 16:01:20;;;;;;;11.13;4.20;;;;;;;;;;5136784;27;20429;-73
2022/10/01 16:04:10;;;;;;;7.13;3.70;;;;;;;;;;5121235;27;20019;-72
2022/10/01 16:06:56;;;;;;;9.68;3.42;;;;;;;;;;5136422;27;20348;-72
2022/10/01 16:09:50;;;;;;;8.35;3.50;;;;;;;;;;5135603;27;20015;-74
2022/10/01 16:12:35;;;;;;;8.70;3.33;;;;;;;;;;5134696;27;20015;-72
2022/10/01 16:15:24;;;;;;;6.70;3.13;;;;;;;;;;5135286;27;20034;-73
2022/10/01 16:18:21;;;;;;;8.02;3.65;;;;;;;;;;5134769;27;20030;-72
2022/10/01 16:21:08;;;;;;;7.20;3.03;;;;;;;;;;5121466;27;20020;-71
2022/10/01 16:23:54;;;;;;;7.18;3.10;;;;;;;;;;5135576;27;20475;-72
2022/10/01 16:26:40;;;;;;;8.38;2.90;;;;;;;;;;5136207;27;20083;-70
2022/10/01 16:29:25;;;;;;;7.57;3.40;;;;;;;;;;5135643;27;20046;-72
2022/10/01 16:32:12;;;;;;;10.35;4.13;;;;;;;;;;5135026;27;20016;-71
2022/10/01 16:35:24;;;;;;;10.68;4.78;;;;;;;;;;5135733;27;20029;-72
2022/10/01 16:38:10;;;;;;;18.33;10.88;;;;;;;;;;5135569;27;20023;-72
2022/10/01 16:40:55;;;;;;;16.08;4.32;;;;;;;;;;5134929;27;20322;-71
2022/10/01 16:43:41;;;;;;;6.50;3.67;;;;;;;;;;5120561;27;20029;-71
2022/10/01 16:46:27;;;;;;;11.25;3.60;;;;;;;;;;5120477;27;20165;-71
2022/10/01 16:49:13;;;;;;;10.13;3.80;;;;;;;;;;5135011;27;20037;-71